Time;durP1;ratioP1;P1;durP2;ratioP2;P2;SDS_P1;SDS_P2;PMS_P1;PMS_P2;Temp;Humidity;BMP_temperature;BMP_pressure;BME280_temperature;BME280_humidity;BME280_pressure;Samples;Min_cycle;Max_cycle;Signal;HPM_P1;HPM_P2
2022/09/21 00:01:09;;;;;;;1.85;1.23;;;6.80;99.90;;;;;;5057404;28;20406;-76
2022/09/21 00:03:36;;;;;;;1.98;1.17;;;6.80;99.90;;;;;;5048619;28;20495;-76
2022/09/21 00:06:07;;;;;;;2.17;1.00;;;6.70;99.90;;;;;;5068143;28;20134;-76
2022/09/21 00:08:33;;;;;;;1.75;1.00;;;6.80;99.90;;;;;;5053404;28;20507;-76
2022/09/21 00:10:59;;;;;;;1.20;0.88;;;6.70;99.90;;;;;;5049943;28;20045;-76
2022/09/21 00:13:27;;;;;;;0.88;0.80;;;6.70;99.90;;;;;;5049537;28;20041;-76
2022/09/21 00:15:55;;;;;;;2.80;1.00;;;6.70;99.90;;;;;;5047683;28;20549;-76
2022/09/21 00:18:22;;;;;;;2.00;0.80;;;6.60;99.90;;;;;;5048037;28;20041;-76
2022/09/21 00:20:47;;;;;;;1.10;0.80;;;6.60;99.90;;;;;;5054658;28;20051;-76
2022/09/21 00:23:13;;;;;;;0.85;0.80;;;6.70;99.90;;;;;;5047520;28;20036;-75
2022/09/21 00:25:39;;;;;;;1.48;0.82;;;6.60;99.90;;;;;;5048532;28;20541;-75
2022/09/21 00:28:05;;;;;;;1.85;0.82;;;6.50;99.90;;;;;;5065368;28;20036;-76
2022/09/21 00:30:30;;;;;;;1.10;0.85;;;6.40;99.90;;;;;;5061782;28;20048;-76
2022/09/21 00:32:56;;;;;;;2.75;1.00;;;6.30;99.90;;;;;;5061115;28;20029;-76
2022/09/21 00:35:21;;;;;;;0.65;0.45;;;6.30;99.90;;;;;;5065142;28;20060;-75
2022/09/21 00:37:47;;;;;;;0.55;0.50;;;6.20;99.90;;;;;;5058892;28;20056;-75
2022/09/21 00:40:13;;;;;;;3.55;1.20;;;6.30;99.90;;;;;;5059005;28;20040;-75
2022/09/21 00:42:38;;;;;;;2.17;1.00;;;6.20;99.90;;;;;;5073242;28;20033;-75
2022/09/21 00:45:05;;;;;;;1.23;0.90;;;6.10;99.90;;;;;;5058460;28;20045;-75
2022/09/21 00:47:43;;;;;;;1.38;0.93;;;6.10;99.90;;;;;;5057990;28;20395;-75
2022/09/21 00:50:12;;;;;;;0.93;0.80;;;6.10;99.90;;;;;;5075522;28;20050;-75
2022/09/21 00:52:42;;;;;;;0.57;0.57;;;6.00;99.90;;;;;;5053840;28;20051;-74
2022/09/21 00:55:17;;;;;;;2.78;0.68;;;6.00;99.90;;;;;;5054993;28;20039;-74
2022/09/21 00:57:45;;;;;;;0.68;0.47;;;6.00;99.90;;;;;;5037731;28;20069;-72
2022/09/21 01:00:11;;;;;;;4.47;0.80;;;6.00;99.90;;;;;;5075581;28;20042;-73
2022/09/21 01:02:37;;;;;;;1.83;0.80;;;5.90;99.90;;;;;;5053589;28;20070;-74
2022/09/21 01:05:05;;;;;;;38.15;2.65;;;5.80;99.90;;;;;;5058029;28;20033;-72
2022/09/21 01:07:34;;;;;;;2.78;1.52;;;5.80;99.90;;;;;;5061420;28;20368;-74
2022/09/21 01:10:09;;;;;;;4.88;1.90;;;5.80;99.90;;;;;;5050830;28;20044;-74
2022/09/21 01:13:06;;;;;;;2.47;1.25;;;5.80;99.90;;;;;;5052478;28;20048;-74
2022/09/21 01:16:02;;;;;;;1.95;1.50;;;5.90;99.90;;;;;;5049992;28;20128;-74
2022/09/21 01:18:36;;;;;;;1.83;1.10;;;6.00;99.90;;;;;;5051860;28;20041;-75
2022/09/21 01:21:25;;;;;;;1.98;1.10;;;6.00;99.90;;;;;;5035422;28;20368;-75
2022/09/21 01:24:29;;;;;;;1.08;0.80;;;6.00;99.90;;;;;;5054206;28;20040;-75
2022/09/21 01:26:55;;;;;;;2.38;0.85;;;5.90;99.90;;;;;;5056247;28;20113;-74
2022/09/21 01:29:47;;;;;;;1.67;0.98;;;6.00;99.90;;;;;;5060968;28;20283;-75
2022/09/21 01:32:22;;;;;;;1.45;0.80;;;5.90;99.90;;;;;;5053944;28;20047;-74
2022/09/21 01:34:53;;;;;;;2.10;1.05;;;5.80;99.90;;;;;;5070294;28;20171;-74
2022/09/21 01:37:36;;;;;;;2.33;1.30;;;5.80;99.90;;;;;;5074205;28;20047;-73
2022/09/21 01:40:18;;;;;;;1.60;1.08;;;5.80;99.90;;;;;;5056894;28;20098;-74
2022/09/21 01:42:46;;;;;;;1.90;1.25;;;5.80;99.90;;;;;;5052851;28;20043;-74
2022/09/21 01:45:16;;;;;;;2.95;1.60;;;5.80;99.90;;;;;;5057551;28;20041;-74
2022/09/21 01:47:43;;;;;;;1.38;1.20;;;5.90;99.90;;;;;;5059331;28;20048;-74
2022/09/21 01:50:10;;;;;;;1.55;0.80;;;5.80;99.90;;;;;;5055850;28;20036;-73
2022/09/21 01:52:48;;;;;;;0.85;0.70;;;5.80;99.90;;;;;;5074906;28;20055;-73
2022/09/21 01:55:34;;;;;;;0.73;0.70;;;5.70;99.90;;;;;;5050406;28;20036;-73
2022/09/21 01:58:19;;;;;;;0.80;0.80;;;5.70;99.90;;;;;;5058122;28;20041;-73
2022/09/21 02:00:51;;;;;;;0.80;0.80;;;5.70;99.90;;;;;;5054997;28;20530;-73
2022/09/21 02:03:34;;;;;;;3.60;1.17;;;5.70;99.90;;;;;;5031087;28;20037;-72
2022/09/21 02:06:01;;;;;;;4.60;0.60;;;5.60;99.90;;;;;;5055465;28;20036;-71
2022/09/21 02:08:31;;;;;;;0.77;0.45;;;5.60;99.90;;;;;;5076026;28;20079;-73
2022/09/21 02:11:00;;;;;;;0.70;0.70;;;5.40;99.90;;;;;;5050907;28;20247;-73
2022/09/21 02:13:33;;;;;;;0.73;0.73;;;5.40;99.90;;;;;;5058622;28;20032;-74
2022/09/21 02:16:20;;;;;;;0.80;0.80;;;5.50;99.90;;;;;;5054668;28;20092;-75
2022/09/21 02:19:08;;;;;;;1.00;1.00;;;5.50;99.90;;;;;;5066966;28;20045;-75
2022/09/21 02:21:54;;;;;;;1.92;1.40;;;5.50;99.90;;;;;;5051694;28;20045;-73
2022/09/21 02:24:24;;;;;;;13.93;1.70;;;5.50;99.90;;;;;;5060722;28;20032;-71
2022/09/21 02:27:02;;;;;;;1.70;0.77;;;5.50;99.90;;;;;;5058061;28;20074;-72
2022/09/21 02:29:37;;;;;;;0.90;0.90;;;5.30;99.90;;;;;;5052427;28;20105;-72
2022/09/21 02:32:16;;;;;;;2.10;1.30;;;5.30;99.90;;;;;;5057803;28;20396;-72
2022/09/21 02:34:52;;;;;;;1.10;0.95;;;5.20;99.90;;;;;;5057479;28;20044;-71
2022/09/21 02:37:18;;;;;;;2.78;0.80;;;5.10;99.90;;;;;;5050158;28;20558;-71
2022/09/21 02:40:02;;;;;;;2.78;1.20;;;5.20;99.90;;;;;;5067587;28;20044;-71
2022/09/21 02:42:33;;;;;;;1.63;0.93;;;5.00;99.90;;;;;;5043822;28;20172;-71
2022/09/21 02:45:15;;;;;;;3.42;1.45;;;4.90;99.90;;;;;;5050215;28;20045;-71
2022/09/21 02:47:47;;;;;;;1.95;1.42;;;4.70;99.90;;;;;;5058478;28;21224;-71
2022/09/21 02:50:25;;;;;;;1.75;1.40;;;4.90;99.90;;;;;;5055948;28;20040;-71
2022/09/21 02:52:53;;;;;;;2.15;1.70;;;4.70;99.90;;;;;;5055770;28;20370;-70
2022/09/21 02:55:19;;;;;;;1.52;1.35;;;4.70;99.90;;;;;;5056918;28;20040;-71
2022/09/21 02:57:46;;;;;;;1.67;1.58;;;4.80;99.90;;;;;;5059557;28;20079;-71
2022/09/21 03:00:14;;;;;;;2.45;1.80;;;4.70;99.90;;;;;;5056345;28;20033;-71
2022/09/21 03:02:43;;;;;;;2.33;1.70;;;4.80;99.90;;;;;;5056948;28;20053;-71
2022/09/21 03:05:10;;;;;;;1.85;1.65;;;4.80;99.90;;;;;;5054015;28;20076;-71
2022/09/21 03:07:36;;;;;;;2.10;1.75;;;4.80;99.90;;;;;;5053947;28;20037;-71
2022/09/21 03:10:03;;;;;;;3.08;1.80;;;4.90;99.90;;;;;;5050621;28;20033;-71
2022/09/21 03:12:29;;;;;;;55.45;3.20;;;4.80;99.90;;;;;;5048684;28;20181;-71
2022/09/21 03:14:55;;;;;;;6.07;1.52;;;4.70;99.90;;;;;;5053345;28;20064;-71
2022/09/21 03:17:21;;;;;;;1.30;1.20;;;4.70;99.90;;;;;;5052135;28;20669;-71
2022/09/21 03:19:46;;;;;;;2.85;2.20;;;4.80;99.90;;;;;;5049635;28;20037;-71
2022/09/21 03:22:12;;;;;;;1.48;1.38;;;4.80;99.90;;;;;;5046932;28;20506;-71
2022/09/21 03:24:46;;;;;;;2.00;1.70;;;4.90;99.90;;;;;;5048137;28;20044;-71
2022/09/21 03:27:17;;;;;;;2.85;2.25;;;5.00;99.90;;;;;;5048309;28;20045;-71
2022/09/21 03:29:44;;;;;;;3.65;2.10;;;4.90;99.90;;;;;;5066496;28;20095;-71
2022/09/21 03:32:10;;;;;;;3.05;2.47;;;5.00;99.90;;;;;;5048389;28;20037;-71
2022/09/21 03:34:36;;;;;;;25.85;2.63;;;5.00;99.90;;;;;;5051013;28;20358;-71
2022/09/21 03:37:04;;;;;;;1.95;1.75;;;4.90;99.90;;;;;;5047525;28;20036;-71
2022/09/21 03:39:30;;;;;;;2.83;2.00;;;5.00;99.90;;;;;;5049266;28;20507;-71
2022/09/21 03:41:56;;;;;;;4.90;3.38;;;4.90;99.90;;;;;;5044740;28;20047;-72
2022/09/21 03:44:23;;;;;;;6.93;3.45;;;4.80;99.90;;;;;;5064825;28;20041;-72
2022/09/21 03:46:49;;;;;;;14.52;2.60;;;4.90;99.90;;;;;;5048803;28;20083;-72
2022/09/21 03:49:15;;;;;;;13.73;3.20;;;4.90;99.90;;;;;;5047645;28;20049;-72
2022/09/21 03:51:41;;;;;;;4.25;2.70;;;4.80;99.90;;;;;;5057882;28;20403;-72
2022/09/21 03:54:06;;;;;;;3.53;2.70;;;4.90;99.90;;;;;;5049655;28;20041;-73
2022/09/21 03:56:32;;;;;;;6.68;2.78;;;4.90;99.90;;;;;;5059221;28;20032;-72
2022/09/21 03:58:58;;;;;;;53.50;2.60;;;4.90;99.90;;;;;;5043214;28;20039;-73
2022/09/21 04:01:23;;;;;;;132.57;5.40;;;4.80;99.90;;;;;;5042497;28;20048;-73
2022/09/21 04:03:49;;;;;;;20.13;1.70;;;4.60;99.90;;;;;;5047465;28;20040;-73
2022/09/21 04:06:14;;;;;;;2.85;1.30;;;4.50;99.90;;;;;;5047471;28;20052;-73
2022/09/21 04:08:40;;;;;;;3.05;1.55;;;4.40;99.90;;;;;;5043628;28;20039;-73
2022/09/21 04:11:10;;;;;;;2.78;1.95;;;4.30;99.90;;;;;;5049184;28;20399;-73
2022/09/21 04:13:36;;;;;;;10.85;1.90;;;4.30;99.90;;;;;;5051923;28;20037;-74
2022/09/21 04:16:02;;;;;;;15.55;2.25;;;4.30;99.90;;;;;;5050423;28;20047;-74
2022/09/21 04:18:27;;;;;;;29.02;3.45;;;4.30;99.90;;;;;;5054331;28;20099;-74
2022/09/21 04:20:53;;;;;;;15.43;2.97;;;4.30;99.90;;;;;;5055479;28;20036;-75
2022/09/21 04:23:19;;;;;;;3.35;2.55;;;4.40;99.90;;;;;;5056563;28;20044;-75
2022/09/21 04:25:47;;;;;;;5.53;2.72;;;4.30;99.90;;;;;;5059726;28;20040;-75
2022/09/21 04:28:13;;;;;;;4.00;2.60;;;4.40;99.90;;;;;;5054107;28;20133;-74
2022/09/21 04:30:39;;;;;;;2.95;2.35;;;4.40;99.90;;;;;;5054778;28;20068;-75
2022/09/21 04:33:05;;;;;;;3.40;2.05;;;4.50;99.90;;;;;;5055044;28;20123;-75
2022/09/21 04:35:30;;;;;;;2.47;2.00;;;4.50;99.90;;;;;;5071391;28;20033;-75
2022/09/21 04:37:56;;;;;;;3.20;1.90;;;4.50;99.90;;;;;;5058065;28;20029;-75
2022/09/21 04:40:22;;;;;;;2.92;2.20;;;4.60;99.90;;;;;;5061364;28;20036;-76
2022/09/21 04:42:54;;;;;;;4.88;2.92;;;4.50;99.90;;;;;;5057679;28;20032;-75
2022/09/21 04:45:21;;;;;;;128.95;6.75;;;4.50;99.90;;;;;;5043352;28;20037;-75
2022/09/21 04:47:47;;;;;;;73.68;4.40;;;4.60;99.90;;;;;;5054410;28;20048;-74
2022/09/21 04:50:13;;;;;;;45.60;2.97;;;4.40;99.90;;;;;;5055257;28;20131;-74
2022/09/21 04:52:39;;;;;;;25.60;3.25;;;4.40;99.90;;;;;;5048438;28;20531;-77
2022/09/21 04:55:06;;;;;;;24.50;2.90;;;4.20;99.90;;;;;;5051188;28;20759;-75
2022/09/21 04:57:31;;;;;;;14.45;3.40;;;4.20;99.90;;;;;;5058035;28;20164;-75
2022/09/21 04:59:57;;;;;;;4.72;3.00;;;4.00;99.90;;;;;;5052387;28;20131;-77
2022/09/21 05:02:23;;;;;;;6.47;3.38;;;4.00;99.90;;;;;;5065913;28;20043;-78
2022/09/21 05:04:48;;;;;;;9.80;3.30;;;4.20;99.90;;;;;;5050283;28;20521;-78
2022/09/21 05:07:15;;;;;;;4.30;3.10;;;4.20;99.90;;;;;;5053027;28;20131;-78
2022/09/21 05:12:24;;;;;;;15.73;3.55;;;4.10;99.90;;;;;;5054811;28;20346;-76
2022/09/21 05:14:50;;;;;;;5.40;3.03;;;4.20;99.90;;;;;;5066601;28;20033;-77
2022/09/21 05:17:16;;;;;;;4.70;2.70;;;4.20;99.90;;;;;;5048347;28;20035;-78
2022/09/21 05:19:41;;;;;;;7.68;2.80;;;4.30;99.90;;;;;;5049360;28;20052;-78
2022/09/21 05:22:07;;;;;;;4.68;2.45;;;4.20;99.90;;;;;;5049398;28;20052;-79
2022/09/21 05:24:33;;;;;;;3.88;2.70;;;4.20;99.90;;;;;;5052757;28;20157;-76
2022/09/21 05:26:59;;;;;;;4.88;2.70;;;4.30;99.90;;;;;;5068423;28;20415;-77
2022/09/21 05:29:25;;;;;;;4.78;2.63;;;4.20;99.90;;;;;;5057115;28;20045;-77
2022/09/21 05:32:19;;;;;;;4.18;3.00;;;4.30;99.90;;;;;;5043756;28;20037;-76
2022/09/21 05:35:12;;;;;;;4.32;3.00;;;4.30;99.90;;;;;;5050111;28;20040;-76
2022/09/21 05:37:50;;;;;;;4.55;3.25;;;4.20;99.90;;;;;;5053403;28;20487;-77
2022/09/21 05:40:16;;;;;;;4.43;2.88;;;4.40;99.90;;;;;;5053928;28;20047;-76
2022/09/21 05:42:42;;;;;;;8.07;3.40;;;4.30;99.90;;;;;;5073018;28;20466;-79
2022/09/21 05:45:13;;;;;;;8.40;3.25;;;4.40;99.90;;;;;;5044775;28;20123;-77
2022/09/21 05:47:56;;;;;;;9.32;3.95;;;4.30;99.90;;;;;;5055302;28;20045;-79
2022/09/21 05:50:25;;;;;;;6.38;4.35;;;4.30;99.90;;;;;;5061895;28;20103;-78
2022/09/21 05:53:10;;;;;;;8.40;4.45;;;4.30;99.90;;;;;;5038713;28;20480;-77
2022/09/21 05:55:55;;;;;;;6.43;4.25;;;4.30;99.90;;;;;;5044796;28;20433;-77
2022/09/21 05:58:39;;;;;;;11.50;4.30;;;4.30;99.90;;;;;;5053374;28;20040;-77
2022/09/21 06:01:23;;;;;;;6.43;4.07;;;4.20;99.90;;;;;;5069935;28;20037;-78
2022/09/21 06:03:49;;;;;;;8.75;4.35;;;4.30;99.90;;;;;;5063737;28;20045;-77
2022/09/21 06:06:17;;;;;;;7.55;4.55;;;4.20;99.90;;;;;;5047125;28;20111;-77
2022/09/21 06:08:42;;;;;;;8.25;4.97;;;4.30;99.90;;;;;;5060479;28;20048;-76
2022/09/21 06:11:08;;;;;;;25.33;6.07;;;4.30;99.90;;;;;;5053051;28;20480;-77
2022/09/21 06:13:34;;;;;;;8.23;5.50;;;4.30;99.90;;;;;;5057540;28;20051;-78
2022/09/21 06:16:03;;;;;;;7.38;4.85;;;4.30;99.90;;;;;;5060223;28;20045;-78
2022/09/21 06:18:29;;;;;;;7.35;4.95;;;4.50;99.90;;;;;;5059533;28;20087;-79
2022/09/21 06:20:55;;;;;;;7.53;5.38;;;4.50;99.90;;;;;;5051349;28;20052;-78
2022/09/21 06:23:20;;;;;;;9.48;5.45;;;4.50;99.90;;;;;;5052742;28;20093;-77
2022/09/21 06:25:53;;;;;;;6.13;4.82;;;4.60;99.90;;;;;;5050905;28;20128;-78
2022/09/21 06:28:19;;;;;;;6.05;4.55;;;4.80;99.90;;;;;;5071580;28;20484;-78
2022/09/21 06:30:50;;;;;;;7.00;4.80;;;4.90;99.90;;;;;;5053452;28;20123;-78
2022/09/21 06:33:19;;;;;;;7.80;5.18;;;4.90;99.90;;;;;;5049586;28;20519;-77
2022/09/21 06:35:54;;;;;;;8.93;6.35;;;5.10;99.90;;;;;;5065779;28;20048;-76
2022/09/21 06:38:20;;;;;;;8.57;5.32;;;5.20;99.90;;;;;;5052175;28;20392;-75
2022/09/21 06:40:45;;;;;;;7.57;5.40;;;5.30;99.90;;;;;;5057726;28;20035;-74
2022/09/21 06:43:11;;;;;;;9.90;5.78;;;5.40;99.90;;;;;;5059585;28;20115;-73
2022/09/21 06:45:37;;;;;;;8.98;5.55;;;5.50;99.90;;;;;;5059094;28;20063;-72
2022/09/21 06:48:02;;;;;;;8.88;5.50;;;5.70;99.90;;;;;;5060760;28;20463;-72
2022/09/21 06:50:28;;;;;;;10.60;5.85;;;5.80;99.90;;;;;;5053562;28;20041;-71
2022/09/21 06:52:53;;;;;;;11.38;6.45;;;5.80;99.90;;;;;;5069865;28;20036;-71
2022/09/21 06:55:19;;;;;;;7.85;5.78;;;6.00;99.90;;;;;;5056872;28;20048;-71
2022/09/21 06:57:45;;;;;;;11.23;6.43;;;6.00;99.90;;;;;;5057719;28;20520;-71
2022/09/21 07:00:12;;;;;;;11.88;6.65;;;6.10;99.90;;;;;;5049167;28;20528;-71
2022/09/21 07:02:42;;;;;;;9.55;5.80;;;6.30;99.90;;;;;;5048630;28;20036;-72
2022/09/21 07:05:08;;;;;;;10.48;6.28;;;6.30;99.90;;;;;;5054337;28;20566;-72
2022/09/21 07:07:35;;;;;;;13.10;6.53;;;6.50;99.90;;;;;;5052762;28;20121;-73
2022/09/21 07:10:01;;;;;;;9.10;5.95;;;6.50;99.90;;;;;;5045716;28;20511;-73
2022/09/21 07:12:28;;;;;;;12.23;6.78;;;6.80;99.90;;;;;;5048280;28;20075;-73
2022/09/21 07:14:54;;;;;;;12.57;7.35;;;6.90;99.90;;;;;;5049563;28;20037;-75
2022/09/21 07:17:19;;;;;;;15.27;8.10;;;7.10;99.90;;;;;;5049134;28;20040;-74
2022/09/21 07:19:45;;;;;;;14.55;8.35;;;7.20;99.90;;;;;;5047535;28;20472;-75
2022/09/21 07:22:11;;;;;;;14.00;7.78;;;7.40;99.90;;;;;;5038516;28;20044;-75
2022/09/21 07:24:36;;;;;;;15.27;8.15;;;7.50;99.90;;;;;;5048095;28;20080;-75
2022/09/21 07:27:02;;;;;;;15.32;7.75;;;7.60;99.90;;;;;;5033749;28;20056;-75
2022/09/21 07:29:27;;;;;;;17.15;8.80;;;7.80;99.90;;;;;;5037451;28;20052;-75
2022/09/21 07:31:53;;;;;;;12.85;6.38;;;8.10;99.90;;;;;;5046975;28;20052;-75
2022/09/21 07:34:19;;;;;;;15.50;7.45;;;8.10;99.90;;;;;;5045232;28;20050;-75
2022/09/21 07:36:44;;;;;;;25.55;8.25;;;8.30;99.90;;;;;;5049447;28;20602;-77
2022/09/21 07:39:10;;;;;;;27.95;8.93;;;8.50;99.90;;;;;;5048234;28;20037;-78
2022/09/21 07:41:36;;;;;;;20.95;8.57;;;8.70;99.90;;;;;;5044883;28;20041;-76
2022/09/21 07:44:02;;;;;;;16.90;8.23;;;8.90;99.90;;;;;;5049246;28;20037;-76
2022/09/21 07:46:28;;;;;;;19.50;8.32;;;8.90;99.90;;;;;;5041349;28;20041;-76
2022/09/21 07:48:55;;;;;;;15.75;8.00;;;9.20;99.90;;;;;;5052973;28;20051;-75
2022/09/21 07:51:20;;;;;;;14.57;7.68;;;9.30;99.90;;;;;;5049960;28;20052;-76
2022/09/21 07:53:46;;;;;;;14.23;8.02;;;9.50;99.90;;;;;;5051996;28;20056;-77
2022/09/21 07:56:15;;;;;;;19.17;8.30;;;9.40;99.90;;;;;;5031920;28;20041;-76
2022/09/21 08:01:26;;;;;;;15.48;7.50;;;9.70;99.90;;;;;;5051158;28;20045;-72
2022/09/21 08:03:54;;;;;;;13.60;7.25;;;9.90;99.90;;;;;;5035153;28;20088;-73
2022/09/21 08:06:21;;;;;;;13.68;7.40;;;10.00;99.90;;;;;;5032664;28;20377;-74
2022/09/21 08:08:49;;;;;;;13.05;7.53;;;10.20;99.90;;;;;;5032865;28;20038;-74
2022/09/21 08:11:16;;;;;;;13.68;7.55;;;10.30;99.90;;;;;;5058242;28;20061;-72
2022/09/21 08:13:41;;;;;;;12.15;6.65;;;10.40;99.90;;;;;;5050590;28;20230;-73
2022/09/21 08:16:08;;;;;;;12.10;7.63;;;10.70;99.90;;;;;;5053479;28;20498;-73
2022/09/21 08:18:38;;;;;;;15.95;7.57;;;10.70;99.90;;;;;;5044814;28;20103;-72
2022/09/21 08:21:04;;;;;;;17.05;7.65;;;10.90;99.90;;;;;;5047108;28;20045;-72
2022/09/21 08:23:30;;;;;;;12.73;6.10;;;10.90;99.90;;;;;;5042679;28;20055;-72
2022/09/21 08:26:01;;;;;;;14.50;7.55;;;11.20;99.90;;;;;;5052330;28;20403;-70
2022/09/21 08:28:27;;;;;;;13.52;6.28;;;11.30;99.90;;;;;;5055518;28;20044;-70
2022/09/21 08:30:53;;;;;;;13.00;5.60;;;11.20;99.90;;;;;;5055979;28;20071;-69
2022/09/21 08:33:18;;;;;;;14.13;6.68;;;11.30;99.90;;;;;;5055871;28;20029;-70
2022/09/21 08:35:52;;;;;;;12.63;6.53;;;11.40;99.90;;;;;;5070590;28;20503;-70
2022/09/21 08:38:17;;;;;;;13.35;6.70;;;11.50;99.90;;;;;;5051039;28;20045;-69
2022/09/21 08:40:43;;;;;;;13.70;5.45;;;11.70;99.90;;;;;;5050904;28;20120;-69
2022/09/21 08:43:34;;;;;;;13.15;5.82;;;11.70;99.90;;;;;;5034639;28;20033;-70
2022/09/21 08:46:02;;;;;;;14.95;5.78;;;11.80;99.90;;;;;;5046531;28;20425;-70
2022/09/21 08:48:31;;;;;;;11.15;5.93;;;11.90;99.90;;;;;;5031812;28;20175;-70
2022/09/21 08:51:02;;;;;;;14.40;5.38;;;12.10;99.90;;;;;;5031484;28;20077;-70
2022/09/21 08:53:46;;;;;;;10.63;5.57;;;12.20;99.90;;;;;;5046691;28;20132;-69
2022/09/21 08:56:13;;;;;;;10.75;4.97;;;12.20;99.90;;;;;;5033795;28;20082;-70
2022/09/21 08:58:40;;;;;;;9.23;4.60;;;12.30;99.90;;;;;;5043554;28;20539;-70
2022/09/21 09:01:28;;;;;;;14.90;5.03;;;12.40;99.90;;;;;;5033566;28;20079;-69
2022/09/21 09:04:19;;;;;;;14.73;5.03;;;12.60;99.90;;;;;;5051311;28;20056;-70
2022/09/21 09:06:54;;;;;;;12.48;4.72;;;12.50;99.90;;;;;;5057036;28;20391;-70
2022/09/21 09:09:23;;;;;;;10.50;4.55;;;12.60;99.90;;;;;;5056608;28;20037;-70
2022/09/21 09:12:00;;;;;;;14.50;4.30;;;12.80;99.90;;;;;;5059373;28;20044;-69
2022/09/21 09:14:47;;;;;;;7.40;3.58;;;12.70;99.90;;;;;;5063362;28;20033;-70
2022/09/21 09:17:30;;;;;;;10.73;4.10;;;12.80;99.90;;;;;;5057451;28;20033;-70
2022/09/21 09:19:59;;;;;;;11.43;3.90;;;12.90;99.90;;;;;;5033297;28;20391;-69
2022/09/21 09:22:31;;;;;;;9.75;3.63;;;13.00;99.90;;;;;;5050118;28;20079;-70
2022/09/21 09:25:02;;;;;;;;;;;13.10;99.90;;;;;;5046918;28;20060;-68
2022/09/21 09:27:40;;;;;;;15.23;3.63;;;13.10;99.90;;;;;;5035696;28;20287;-70
2022/09/21 09:30:12;;;;;;;11.50;3.15;;;13.30;99.90;;;;;;5059489;28;20479;-70
2022/09/21 09:32:49;;;;;;;9.43;3.23;;;13.30;99.90;;;;;;5071550;28;20083;-70
2022/09/21 09:35:44;;;;;;;11.90;3.10;;;13.40;99.90;;;;;;5056225;28;20379;-68
2022/09/21 09:38:17;;;;;;;8.52;2.80;;;13.40;99.90;;;;;;5044145;28;20527;-71
2022/09/21 09:41:21;;;;;;;13.20;3.30;;;13.60;99.90;;;;;;5050478;28;20120;-70
2022/09/21 09:43:49;;;;;;;12.10;2.95;;;13.70;99.90;;;;;;5032167;28;20128;-71
2022/09/21 09:46:30;;;;;;;10.85;3.00;;;13.70;99.90;;;;;;5050313;28;20398;-72
2022/09/21 09:49:33;;;;;;;7.85;2.50;;;13.90;99.90;;;;;;5046045;28;20036;-73
2022/09/21 09:51:59;;;;;;;10.32;2.55;;;13.90;99.90;;;;;;5035158;28;20476;-72
2022/09/21 09:54:28;;;;;;;10.60;2.90;;;14.00;99.90;;;;;;5036921;28;20043;-70
2022/09/21 09:56:54;;;;;;;9.68;2.20;;;14.10;99.90;;;;;;5039637;28;20048;-73
2022/09/21 09:59:34;;;;;;;12.07;2.38;;;14.20;99.90;;;;;;5038014;28;20041;-72
2022/09/21 10:02:02;;;;;;;8.43;1.90;;;14.30;99.90;;;;;;5052998;28;20040;-71
2022/09/21 10:04:28;;;;;;;9.55;2.00;;;14.40;99.90;;;;;;5060206;28;20034;-72
2022/09/21 10:06:53;;;;;;;9.63;2.20;;;14.50;99.90;;;;;;5049672;28;20029;-71
2022/09/21 10:09:32;;;;;;;11.60;2.33;;;14.50;99.90;;;;;;5049257;28;20043;-68
2022/09/21 10:12:18;;;;;;;11.38;2.03;;;14.70;99.90;;;;;;5045473;28;20095;-72
2022/09/21 10:14:50;;;;;;;10.60;1.80;;;14.70;99.90;;;;;;5032652;28;20048;-73
2022/09/21 10:17:17;;;;;;;5.72;1.48;;;14.80;99.90;;;;;;5019216;28;20423;-75
2022/09/21 10:19:43;;;;;;;9.82;1.65;;;14.90;99.90;;;;;;5057105;28;20423;-72
2022/09/21 10:22:16;;;;;;;7.32;1.38;;;14.90;99.90;;;;;;5037036;28;20049;-73
2022/09/21 10:24:50;;;;;;;5.15;1.23;;;14.90;99.90;;;;;;5048481;28;20036;-74
2022/09/21 10:27:20;;;;;;;8.82;1.60;;;15.00;99.90;;;;;;5030100;28;20057;-74
2022/09/21 10:29:47;;;;;;;7.13;1.60;;;15.10;99.90;;;;;;5048239;28;20049;-73
2022/09/21 10:32:15;;;;;;;4.07;1.23;;;15.10;99.90;;;;;;5045605;28;20059;-67
2022/09/21 10:34:58;;;;;;;8.27;1.45;;;15.20;99.90;;;;;;5060088;28;20091;-70
2022/09/21 10:37:27;;;;;;;7.75;1.50;;;15.20;99.90;;;;;;5032537;28;20695;-72
2022/09/21 10:39:54;;;;;;;9.57;1.48;;;15.10;99.90;;;;;;5052966;28;20116;-73
2022/09/21 10:42:20;;;;;;;9.57;1.33;;;15.00;99.90;;;;;;5053723;28;20041;-75
2022/09/21 10:45:05;;;;;;;7.07;1.40;;;15.10;99.90;;;;;;5048283;28;20079;-71
2022/09/21 10:47:50;;;;;;;9.98;1.30;;;15.20;99.90;;;;;;5029523;28;20508;-73
2022/09/21 10:50:24;;;;;;;11.18;1.40;;;15.30;99.90;;;;;;5047073;28;20041;-77
2022/09/21 10:52:56;;;;;;;9.30;1.40;;;15.30;99.90;;;;;;5064867;28;20041;-77
2022/09/21 10:55:23;;;;;;;10.32;1.35;;;15.40;99.90;;;;;;5043366;28;20071;-76
2022/09/21 10:57:50;;;;;;;5.47;1.00;;;15.60;99.90;;;;;;5055778;28;20032;-76
2022/09/21 11:00:30;;;;;;;5.95;1.33;;;15.70;99.90;;;;;;5049780;28;20087;-74
2022/09/21 11:02:59;;;;;;;10.65;1.38;;;15.70;99.90;;;;;;5047213;28;20041;-75
2022/09/21 11:05:50;;;;;;;10.18;1.65;;;15.70;99.90;;;;;;5043104;28;20052;-70
2022/09/21 11:08:29;;;;;;;10.60;1.30;;;15.90;99.90;;;;;;5055133;28;20124;-78
2022/09/21 11:11:20;;;;;;;4.40;1.02;;;15.90;99.90;;;;;;5053050;28;20041;-76
2022/09/21 11:13:55;;;;;;;5.38;1.00;;;15.90;99.90;;;;;;5054108;28;20044;-78
2022/09/21 11:16:34;;;;;;;6.97;1.13;;;16.00;99.90;;;;;;5059036;28;20216;-75
2022/09/21 11:19:09;;;;;;;9.15;1.00;;;16.10;99.90;;;;;;5055992;28;20048;-74
2022/09/21 11:21:43;;;;;;;7.20;1.02;;;16.10;99.90;;;;;;5041869;28;20161;-76
2022/09/21 11:24:42;;;;;;;8.27;1.30;;;16.10;99.90;;;;;;5055676;28;20071;-69
2022/09/21 11:27:15;;;;;;;8.27;1.23;;;16.10;99.90;;;;;;5071370;28;20033;-76
2022/09/21 11:30:04;;;;;;;7.28;1.13;;;15.90;99.90;;;;;;5072321;28;20503;-77
2022/09/21 11:32:48;;;;;;;5.25;1.38;;;15.70;99.90;;;;;;5055992;28;20041;-75
2022/09/21 11:35:25;;;;;;;7.57;1.02;;;15.50;99.90;;;;;;5055316;28;20402;-76
2022/09/21 11:38:20;;;;;;;7.72;1.65;;;15.50;99.90;;;;;;5053151;28;20037;-77
2022/09/21 11:41:03;;;;;;;11.73;1.67;;;15.60;99.90;;;;;;5037317;28;20049;-70
2022/09/21 11:43:34;;;;;;;8.48;1.35;;;15.80;99.90;;;;;;5071935;28;20131;-76
2022/09/21 11:46:14;;;;;;;10.13;1.60;;;15.80;99.90;;;;;;5055970;28;20079;-75
2022/09/21 11:48:47;;;;;;;9.93;1.60;;;16.00;99.90;;;;;;5055966;28;20041;-75
2022/09/21 11:51:37;;;;;;;8.82;2.00;;;16.10;99.90;;;;;;5055640;28;20033;-77
2022/09/21 11:54:24;;;;;;;9.15;1.20;;;16.10;99.90;;;;;;5055394;28;20037;-75
2022/09/21 11:57:17;;;;;;;10.93;1.73;;;15.90;99.90;;;;;;5052371;28;20503;-76
2022/09/21 12:00:06;;;;;;;5.55;1.60;;;15.70;99.90;;;;;;5052890;28;20092;-76
2022/09/21 12:03:14;;;;;;;8.05;1.40;;;15.50;99.90;;;;;;5059596;28;20048;-76
2022/09/21 12:05:50;;;;;;;4.95;1.20;;;15.40;99.90;;;;;;5022123;28;20542;-75
2022/09/21 12:08:52;;;;;;;10.50;1.73;;;15.30;99.90;;;;;;5042867;28;20407;-75
2022/09/21 12:11:32;;;;;;;5.10;1.40;;;15.30;99.90;;;;;;5051613;28;20122;-75
2022/09/21 12:14:16;;;;;;;7.00;1.17;;;15.30;99.90;;;;;;5047729;28;20069;-76
2022/09/21 12:17:19;;;;;;;7.07;1.45;;;15.50;99.90;;;;;;5070082;28;20052;-71
2022/09/21 12:20:01;;;;;;;6.20;1.40;;;15.60;99.90;;;;;;5058932;28;20156;-75
2022/09/21 12:22:28;;;;;;;5.25;1.50;;;15.80;99.90;;;;;;5055008;28;20538;-76
2022/09/21 12:24:57;;;;;;;7.07;1.20;;;15.80;99.90;;;;;;5053978;28;20084;-75
2022/09/21 12:27:38;;;;;;;8.73;1.45;;;15.70;99.90;;;;;;5055589;28;20088;-76
2022/09/21 12:30:12;;;;;;;11.27;1.80;;;15.50;99.90;;;;;;5055046;28;20455;-75
2022/09/21 12:32:55;;;;;;;5.88;1.50;;;15.40;99.90;;;;;;5069159;28;20069;-75
2022/09/21 12:35:38;;;;;;;9.05;1.65;;;15.30;99.90;;;;;;5043829;28;20040;-74
2022/09/21 12:38:33;;;;;;;5.07;1.45;;;15.20;99.90;;;;;;5051646;28;20048;-75
2022/09/21 12:41:14;;;;;;;8.40;1.50;;;15.10;99.90;;;;;;5052147;28;20499;-76
2022/09/21 12:43:55;;;;;;;8.05;1.25;;;15.00;99.90;;;;;;5049810;28;20275;-74
2022/09/21 12:46:27;;;;;;;9.27;1.60;;;14.90;99.90;;;;;;5051901;28;20116;-75
2022/09/21 12:48:53;;;;;;;13.17;1.67;;;14.90;99.90;;;;;;5057570;28;20614;-74
2022/09/21 12:51:32;;;;;;;8.15;1.27;;;14.80;99.90;;;;;;5050134;28;20045;-75
2022/09/21 12:54:16;;;;;;;10.38;1.35;;;14.80;99.90;;;;;;5063729;28;20032;-74
2022/09/21 12:56:59;;;;;;;7.32;1.70;;;14.60;99.90;;;;;;5055705;28;20498;-73
2022/09/21 12:59:33;;;;;;;;;;;14.60;99.90;;;;;;5051435;28;20086;-73
2022/09/21 13:02:10;;;;;;;6.93;1.20;;;14.60;99.90;;;;;;5044445;28;19931;-74
2022/09/21 13:04:52;;;;;;;7.07;1.45;;;14.70;99.90;;;;;;5056441;28;20052;-74
2022/09/21 13:07:20;;;;;;;6.93;1.35;;;14.80;99.90;;;;;;5078579;28;20394;-75
2022/09/21 13:09:48;;;;;;;3.53;0.90;;;15.00;99.90;;;;;;5074254;28;20049;-71
2022/09/21 13:12:22;;;;;;;2.92;0.93;;;15.00;99.90;;;;;;5058083;28;20090;-75
2022/09/21 13:14:53;;;;;;;9.40;1.55;;;15.20;99.90;;;;;;5055338;28;20240;-70
2022/09/21 13:17:28;;;;;;;7.90;1.23;;;15.40;99.90;;;;;;5057960;28;20372;-69
2022/09/21 13:20:04;;;;;;;6.72;1.02;;;15.60;99.90;;;;;;5070142;28;20032;-73
2022/09/21 13:22:33;;;;;;;3.90;1.00;;;15.70;99.90;;;;;;5056645;28;20507;-76